Time;durP1;ratioP1;P1;durP2;ratioP2;P2;SDS_P1;SDS_P2;PMS_P1;PMS_P2;Temp;Humidity;BMP_temperature;BMP_pressure;BME280_temperature;BME280_humidity;BME280_pressure;Samples;Min_cycle;Max_cycle;Signal;HPM_P1;HPM_P2
2022/08/17 00:01:34;;;;;;;20.05;17.23;;;;;;;21.66;67.87;100846.72;5158082;27;20067;-75
2022/08/17 00:04:19;;;;;;;21.23;17.40;;;;;;;21.66;67.68;100842.22;5158480;27;20046;-75
2022/08/17 00:06:48;;;;;;;18.13;15.77;;;;;;;21.68;67.75;100840.28;5158643;27;20436;-75
2022/08/17 00:09:16;;;;;;;22.65;17.23;;;;;;;21.67;67.70;100827.84;5158442;27;20039;-74
2022/08/17 00:11:47;;;;;;;21.15;16.75;;;;;;;21.68;67.57;100831.34;5158156;27;20070;-75
2022/08/17 00:14:35;;;;;;;19.35;17.13;;;;;;;21.64;67.87;100829.91;5157844;27;20135;-75
2022/08/17 00:17:05;;;;;;;19.35;17.10;;;;;;;21.61;67.95;100825.63;5158137;27;20135;-74
2022/08/17 00:19:32;;;;;;;21.70;18.13;;;;;;;21.59;68.02;100816.84;5158368;27;20039;-74
2022/08/17 00:22:01;;;;;;;19.50;17.40;;;;;;;21.57;67.95;100819.59;5158081;27;20135;-74
2022/08/17 00:24:49;;;;;;;21.83;17.55;;;;;;;21.54;68.04;100811.81;5158268;27;20497;-75
2022/08/17 00:27:17;;;;;;;19.55;17.27;;;;;;;21.49;68.15;100818.50;5157924;27;20572;-75
2022/08/17 00:29:45;;;;;;;24.25;18.20;;;;;;;21.44;68.22;100815.31;5158127;27;20066;-75
2022/08/17 00:32:13;;;;;;;22.05;17.73;;;;;;;21.44;68.56;100815.31;5158096;27;20088;-74
2022/08/17 00:35:05;;;;;;;23.85;18.17;;;;;;;21.39;68.66;100819.22;5157917;27;20035;-74
2022/08/17 00:37:32;;;;;;;21.38;17.55;;;;;;;21.37;68.59;100820.28;5157855;27;20096;-74
2022/08/17 00:39:59;;;;;;;19.65;17.65;;;;;;;21.32;68.82;100814.41;5157579;27;20048;-74
2022/08/17 00:42:27;;;;;;;23.40;18.90;;;;;;;21.30;68.77;100809.19;5158205;27;20114;-74
2022/08/17 00:44:57;;;;;;;21.00;17.90;;;;;;;21.28;68.86;100816.50;5157597;27;20554;-74
2022/08/17 00:47:25;;;;;;;24.77;18.60;;;;;;;21.25;68.90;100816.72;5157786;27;20039;-74
2022/08/17 00:49:52;;;;;;;23.77;17.48;;;;;;;21.23;68.79;100816.84;5157150;27;20098;-75
2022/08/17 00:52:31;;;;;;;21.25;18.08;;;;;;;21.19;69.04;100810.00;5157710;27;20508;-74
2022/08/17 00:55:00;;;;;;;20.13;17.92;;;;;;;21.15;69.25;100810.34;5157760;27;20508;-75
2022/08/17 00:57:33;;;;;;;22.08;17.98;;;;;;;21.10;69.40;100814.25;5157465;27;20536;-74
2022/08/17 01:00:32;;;;;;;22.15;19.10;;;;;;;21.09;70.00;100800.94;5157630;27;20096;-74
2022/08/17 01:03:10;;;;;;;21.90;18.13;;;;;;;21.05;69.65;100803.00;5149126;27;20059;-75
2022/08/17 01:05:40;;;;;;;20.85;18.63;;;;;;;21.00;69.66;100805.19;5157965;27;20080;-74
2022/08/17 01:08:14;;;;;;;24.02;18.80;;;;;;;20.99;69.50;100807.97;5157355;27;20042;-75
2022/08/17 01:10:49;;;;;;;24.40;18.05;;;;;;;20.96;69.78;100795.66;5157369;27;20046;-75
2022/08/17 01:13:38;;;;;;;20.33;17.17;;;;;;;20.94;69.92;100792.22;5156895;27;20039;-75
2022/08/17 01:16:25;;;;;;;21.85;18.42;;;;;;;20.97;70.27;100793.81;5157082;27;20458;-75
2022/08/17 01:18:58;;;;;;;19.98;17.88;;;;;;;20.95;70.24;100788.59;5157293;27;20437;-74
2022/08/17 01:21:29;;;;;;;20.58;18.23;;;;;;;20.92;70.42;100786.13;5157201;27;20039;-74
2022/08/17 01:23:58;;;;;;;19.27;17.02;;;;;;;20.88;70.03;100787.34;5157373;27;20237;-75
2022/08/17 01:26:28;;;;;;;19.73;16.95;;;;;;;20.88;70.09;100790.03;5157021;27;20047;-75
2022/08/17 01:28:55;;;;;;;22.20;18.45;;;;;;;20.88;70.01;100787.34;5157480;27;20039;-75
2022/08/17 01:31:29;;;;;;;19.48;16.77;;;;;;;20.87;69.81;100789.16;5156823;27;20532;-75
2022/08/17 01:34:01;;;;;;;25.08;19.17;;;;;;;20.88;69.99;100784.66;5156337;27;20046;-75
2022/08/17 01:36:28;;;;;;;20.70;17.70;;;;;;;20.88;70.15;100781.97;5156623;27;20104;-75
2022/08/17 01:38:55;;;;;;;21.30;18.17;;;;;;;20.87;70.18;100777.59;5157016;27;20561;-75
2022/08/17 01:41:23;;;;;;;21.15;18.63;;;;;;;20.85;69.94;100771.50;5157152;27;20039;-75
2022/08/17 01:44:00;;;;;;;21.80;18.48;;;;;;;20.86;70.05;100779.41;5157039;27;20035;-75
2022/08/17 01:46:33;;;;;;;22.27;18.30;;;;;;;20.87;70.08;100769.56;5156777;27;20065;-75
2022/08/17 01:49:07;;;;;;;26.33;18.63;;;;;;;20.87;70.10;100770.41;5156291;27;20051;-74
2022/08/17 01:51:35;;;;;;;27.35;18.77;;;;;;;20.83;70.11;100763.56;5157077;27;20084;-75
2022/08/17 01:54:12;;;;;;;22.92;18.55;;;;;;;20.82;70.39;100758.31;5156601;27;20100;-75
2022/08/17 01:56:47;;;;;;;23.60;19.17;;;;;;;20.81;70.45;100768.19;5156586;27;20039;-75
2022/08/17 01:59:17;;;;;;;20.60;18.15;;;;;;;20.79;70.25;100764.75;5156431;27;20548;-75
2022/08/17 02:01:45;;;;;;;23.08;18.70;;;;;;;20.77;70.26;100762.22;5156914;27;20084;-75
2022/08/17 02:04:14;;;;;;;23.73;19.20;;;;;;;20.74;70.46;100766.94;5138370;27;20039;-75
2022/08/17 02:06:45;;;;;;;22.23;19.40;;;;;;;20.72;70.60;100763.50;5156688;27;20088;-75
2022/08/17 02:09:23;;;;;;;25.05;19.08;;;;;;;20.73;70.60;100765.19;5156447;27;20041;-75
2022/08/17 02:11:58;;;;;;;21.05;18.95;;;;;;;20.71;70.74;100767.13;5156832;27;20130;-75
2022/08/17 02:14:45;;;;;;;23.10;19.45;;;;;;;20.68;71.06;100768.22;5155893;27;20046;-75
2022/08/17 02:17:12;;;;;;;26.98;19.40;;;;;;;20.66;70.82;100762.13;5155676;27;20043;-75
2022/08/17 02:19:40;;;;;;;23.67;19.17;;;;;;;20.67;70.96;100763.84;5155962;27;20047;-75
2022/08/17 02:22:07;;;;;;;23.00;19.98;;;;;;;20.69;71.14;100761.91;5156475;27;20118;-75
2022/08/17 02:24:38;;;;;;;21.02;18.83;;;;;;;20.65;71.09;100757.72;5155891;27;20472;-74
2022/08/17 02:27:25;;;;;;;25.40;20.55;;;;;;;20.61;71.26;100757.09;5156009;27;20050;-75
2022/08/17 02:29:52;;;;;;;22.67;20.13;;;;;;;20.62;71.26;100750.78;5156161;27;20461;-75
2022/08/17 02:32:23;;;;;;;23.65;19.67;;;;;;;20.64;71.13;100754.22;5156125;27;20552;-75
2022/08/17 02:34:56;;;;;;;30.92;22.23;;;;;;;20.63;71.21;100754.31;5156330;27;20471;-74
2022/08/17 02:37:26;;;;;;;25.40;21.02;;;;;;;20.63;71.27;100754.31;5156327;27;20043;-75
2022/08/17 02:39:55;;;;;;;24.75;21.98;;;;;;;20.62;71.43;100749.91;5155585;27;20521;-75
2022/08/17 02:42:32;;;;;;;29.33;22.27;;;;;;;20.61;71.74;100753.56;5156002;27;20043;-75
2022/08/17 02:45:03;;;;;;;25.90;21.40;;;;;;;20.55;71.63;100760.22;5155334;27;20039;-74
2022/08/17 02:47:30;;;;;;;26.15;21.33;;;;;;;20.54;71.85;100750.50;5155803;27;20046;-75
2022/08/17 02:49:57;;;;;;;26.35;21.48;;;;;;;20.53;71.74;100750.59;5156075;27;20039;-75
2022/08/17 02:52:26;;;;;;;25.92;21.42;;;;;;;20.52;72.08;100756.91;5155454;27;20563;-75
2022/08/17 02:55:28;;;;;;;23.63;20.67;;;;;;;20.52;72.17;100754.25;5156062;27;20039;-74
2022/08/17 02:57:56;;;;;;;23.50;20.02;;;;;;;20.49;72.19;100744.63;5156078;27;20048;-75
2022/08/17 03:00:35;;;;;;;23.88;20.33;;;;;;;20.47;72.32;100743.88;5156059;27;20500;-74
2022/08/17 03:03:04;;;;;;;25.25;19.92;;;;;;;20.45;72.33;100741.31;5154787;27;20058;-74
2022/08/17 03:05:35;;;;;;;23.00;19.73;;;;;;;20.45;72.50;100732.44;5155687;27;20501;-74
2022/08/17 03:08:05;;;;;;;24.33;20.60;;;;;;;20.44;72.42;100725.38;5155732;27;20094;-74
2022/08/17 03:10:37;;;;;;;26.67;19.88;;;;;;;20.44;72.80;100731.56;5155401;27;20050;-74
2022/08/17 03:13:05;;;;;;;22.58;19.45;;;;;;;20.47;72.66;100730.47;5155336;27;20511;-75
2022/08/17 03:15:33;;;;;;;21.48;19.20;;;;;;;20.46;72.71;100728.78;5155367;27;20122;-74
2022/08/17 03:18:02;;;;;;;23.88;19.80;;;;;;;20.48;72.78;100733.06;5154926;27;20048;-74
2022/08/17 03:20:31;;;;;;;21.52;19.02;;;;;;;20.50;72.63;100730.25;5155473;27;20054;-75
2022/08/17 03:22:59;;;;;;;23.27;20.23;;;;;;;20.51;72.64;100734.66;5155083;27;20097;-74
2022/08/17 03:25:34;;;;;;;24.92;19.50;;;;;;;20.54;72.85;100734.44;5155384;27;20039;-74
2022/08/17 03:28:03;;;;;;;22.20;19.13;;;;;;;20.54;72.74;100730.88;5155117;27;20110;-74
2022/08/17 03:30:31;;;;;;;27.85;20.42;;;;;;;20.55;72.77;100736.13;5155700;27;20050;-74
2022/08/17 03:33:03;;;;;;;22.88;20.23;;;;;;;20.58;72.85;100733.22;5155202;27;20600;-74
2022/08/17 03:35:35;;;;;;;27.65;20.40;;;;;;;20.59;72.57;100729.56;5155022;27;20516;-74
2022/08/17 03:38:03;;;;;;;24.77;20.40;;;;;;;20.62;72.72;100737.41;5155195;27;20561;-74
2022/08/17 03:40:31;;;;;;;24.13;20.52;;;;;;;20.62;72.56;100734.72;5155236;27;20039;-74
2022/08/17 03:43:22;;;;;;;21.70;19.38;;;;;;;20.61;72.48;100730.31;5155633;27;20039;-74
2022/08/17 03:57:12;;;;;;;24.00;20.02;;;;;;;20.68;72.16;100736.09;5156456;27;20065;-74
2022/08/17 03:59:40;;;;;;;24.70;20.23;;;;;;;20.67;72.26;100745.09;5158432;27;20505;-74
2022/08/17 04:02:12;;;;;;;26.95;19.60;;;;;;;20.68;72.48;100744.13;5157978;27;20116;-74
2022/08/17 04:04:39;;;;;;;22.10;19.67;;;;;;;20.67;72.36;100744.22;5158762;27;20092;-74
2022/08/17 04:07:07;;;;;;;23.73;19.50;;;;;;;20.64;72.25;100750.66;5158951;27;20114;-75
2022/08/17 04:09:35;;;;;;;23.15;20.27;;;;;;;20.62;72.49;100744.56;5157986;27;20043;-75
2022/08/17 04:12:04;;;;;;;26.10;20.55;;;;;;;20.59;72.42;100753.69;5158414;27;20050;-75
2022/08/17 04:14:35;;;;;;;27.08;21.25;;;;;;;20.57;72.57;100752.94;5158314;27;20426;-75
2022/08/17 04:17:26;;;;;;;23.45;20.20;;;;;;;20.55;72.49;100762.91;5158186;27;20063;-75
2022/08/17 04:19:54;;;;;;;;;;;;;;;20.50;72.62;100758.88;5158696;27;20514;-75
2022/08/17 04:22:23;;;;;;;24.35;21.75;;;;;;;20.50;72.90;100761.56;5157888;27;19923;-75
2022/08/17 04:25:08;;;;;;;22.98;20.42;;;;;;;20.46;73.02;100758.22;5158128;27;20130;-74
2022/08/17 04:27:35;;;;;;;24.65;21.58;;;;;;;20.44;72.82;100761.03;5158224;27;20043;-74
2022/08/17 04:30:06;;;;;;;24.85;20.63;;;;;;;20.43;72.84;100766.50;5158363;27;20539;-75
2022/08/17 04:32:50;;;;;;;25.05;20.27;;;;;;;20.43;72.95;100759.31;5158024;27;20035;-75
2022/08/17 04:35:40;;;;;;;23.58;19.65;;;;;;;20.41;73.18;100763.91;5157245;27;20039;-74
2022/08/17 04:38:17;;;;;;;28.80;21.67;;;;;;;20.40;73.38;100761.34;5158158;27;20088;-74
2022/08/17 04:43:33;;;;;;;24.95;20.65;;;;;;;20.26;73.69;100755.19;5158046;27;20041;-74
2022/08/17 04:46:07;;;;;;;23.20;19.83;;;;;;;20.25;74.04;100755.31;5157988;27;20043;-75
2022/08/17 04:48:51;;;;;;;23.73;20.50;;;;;;;20.23;74.18;100759.91;5157500;27;20099;-75
2022/08/17 04:51:22;;;;;;;;;;;;;;;20.19;74.10;100755.75;5158292;27;20533;-75
2022/08/17 04:54:03;;;;;;;24.10;20.08;;;;;;;20.22;74.30;100766.22;5157758;27;19923;-75
2022/08/17 04:56:31;;;;;;;23.77;21.25;;;;;;;20.24;74.30;100756.28;5157922;27;20049;-74
2022/08/17 04:59:04;;;;;;;25.73;21.90;;;;;;;20.30;73.90;100759.34;5157023;27;20048;-74
2022/08/17 05:01:34;;;;;;;26.85;21.45;;;;;;;20.35;73.80;100755.50;5157715;27;20500;-74
2022/08/17 05:04:09;;;;;;;26.73;20.23;;;;;;;20.39;74.19;100754.28;5157713;27;20043;-75
2022/08/17 05:06:56;;;;;;;24.50;20.42;;;;;;;20.44;73.90;100753.00;5157408;27;20043;-74
2022/08/17 05:09:23;;;;;;;22.48;20.10;;;;;;;20.49;73.92;100755.31;5156132;27;20039;-75
2022/08/17 05:11:50;;;;;;;24.30;20.85;;;;;;;20.51;73.74;100753.41;5157391;27;20116;-75
2022/08/17 05:14:17;;;;;;;27.00;21.73;;;;;;;20.56;73.40;100745.03;5157520;27;20080;-75
2022/08/17 05:16:48;;;;;;;28.02;20.77;;;;;;;20.60;73.61;100744.69;5156955;27;20079;-75
2022/08/17 05:19:15;;;;;;;23.70;20.83;;;;;;;20.67;73.12;100760.28;5157491;27;20445;-75
2022/08/17 05:21:42;;;;;;;24.02;21.42;;;;;;;20.70;73.27;100760.06;5156849;27;20039;-75
2022/08/17 05:24:10;;;;;;;29.35;22.33;;;;;;;20.71;72.85;100777.84;5157303;27;20088;-74
2022/08/17 05:26:57;;;;;;;31.92;21.83;;;;;;;20.77;73.49;100791.66;5157050;27;20039;-74
2022/08/17 05:29:33;;;;;;;35.95;23.63;;;;;;;20.78;73.90;100820.19;5157111;27;20541;-75
2022/08/17 05:32:09;;;;;;;35.50;24.92;;;;;;;20.77;74.52;100809.56;5156664;27;20067;-75
2022/08/17 05:34:58;;;;;;;33.08;25.17;;;;;;;20.70;74.71;100811.81;5156934;27;20039;-75
2022/08/17 05:37:25;;;;;;;29.67;24.30;;;;;;;20.68;75.86;100855.72;5157263;27;20096;-75
2022/08/17 05:39:53;;;;;;;31.08;23.90;;;;;;;20.66;75.83;100822.84;5156937;27;20039;-75
2022/08/17 05:42:21;;;;;;;35.38;26.20;;;;;;;20.58;76.31;100816.25;5156879;27;20080;-76
2022/08/17 05:44:48;;;;;;;37.90;28.58;;;;;;;20.42;76.73;100805.78;5156952;27;20051;-74
2022/08/17 05:47:17;;;;;;;34.30;28.67;;;;;;;20.30;77.32;100812.03;5156490;27;20075;-74
2022/08/17 05:49:44;;;;;;;30.48;25.38;;;;;;;20.23;78.34;100826.81;5156694;27;20047;-76
2022/08/17 05:52:48;;;;;;;36.95;28.58;;;;;;;20.10;79.10;100835.72;5156507;27;20062;-73
2022/08/17 05:55:38;;;;;;;36.38;29.70;;;;;;;19.99;79.86;100812.41;5156755;27;20070;-75
2022/08/17 05:58:51;;;;;;;35.58;29.90;;;;;;;19.93;80.07;100831.56;5156269;27;20043;-75
2022/08/17 06:01:41;;;;;;;39.38;32.90;;;;;;;19.89;81.25;100815.84;5156957;27;20585;-75
2022/08/17 06:04:33;;;;;;;41.35;32.17;;;;;;;19.76;81.77;100826.50;5156733;27;20039;-75
2022/08/17 06:07:29;;;;;;;43.53;33.65;;;;;;;19.70;82.85;100835.78;5155534;27;20043;-74
2022/08/17 06:10:15;;;;;;;38.13;32.80;;;;;;;19.63;83.59;100832.72;5156516;27;20039;-74
2022/08/17 06:13:16;;;;;;;42.28;32.67;;;;;;;19.57;83.71;100827.75;5156303;27;20500;-73
2022/08/17 06:16:08;;;;;;;43.47;33.72;;;;;;;19.54;84.58;100822.63;5155731;27;20072;-74
2022/08/17 06:19:02;;;;;;;40.38;31.00;;;;;;;19.48;85.31;100802.53;5156124;27;20063;-73
2022/08/17 06:21:36;;;;;;;44.90;37.05;;;;;;;19.48;85.32;100802.53;5156133;27;20548;-73
2022/08/17 06:24:19;;;;;;;42.38;34.83;;;;;;;19.46;85.75;100812.47;5156160;27;20096;-73
2022/08/17 06:26:47;;;;;;;42.53;33.35;;;;;;;19.49;87.00;100774.81;5156519;27;20047;-75
2022/08/17 06:29:39;;;;;;;38.70;31.13;;;;;;;19.54;86.17;100767.34;5155726;27;20039;-73
2022/08/17 06:32:11;;;;;;;43.33;30.45;;;;;;;19.55;86.09;100786.91;5155818;27;20055;-72
2022/08/17 06:34:43;;;;;;;45.15;33.92;;;;;;;19.55;86.49;100803.81;5156141;27;20092;-72
2022/08/17 06:37:47;;;;;;;50.45;38.88;;;;;;;19.58;87.10;100810.75;5156026;27;20496;-72
2022/08/17 06:40:37;;;;;;;48.05;39.47;;;;;;;19.64;87.41;100813.00;5155287;27;20043;-72
2022/08/17 06:43:31;;;;;;;51.92;38.65;;;;;;;19.70;87.94;100812.59;5155993;27;20039;-72
2022/08/17 06:46:10;;;;;;;46.17;39.03;;;;;;;19.78;88.04;100800.50;5156001;27;20116;-72
2022/08/17 06:49:06;;;;;;;39.38;32.08;;;;;;;19.79;87.70;100818.25;5156074;27;20043;-72
2022/08/17 06:51:42;;;;;;;40.72;33.45;;;;;;;19.75;87.94;100827.44;5155511;27;20047;-72
2022/08/17 06:54:32;;;;;;;34.78;29.35;;;;;;;19.78;88.36;100822.78;5155723;27;20039;-72
2022/08/17 06:57:18;;;;;;;34.85;28.50;;;;;;;19.78;88.40;100824.56;5155917;27;20043;-72
2022/08/17 06:59:57;;;;;;;33.22;27.55;;;;;;;19.75;87.94;100824.78;5155625;27;20043;-72
2022/08/17 07:02:45;;;;;;;36.50;30.55;;;;;;;19.77;88.19;100831.75;5155888;27;20039;-72
2022/08/17 07:05:41;;;;;;;34.42;27.27;;;;;;;19.79;88.19;100839.66;5155478;27;20054;-72
2022/08/17 07:08:32;;;;;;;31.23;25.33;;;;;;;19.82;88.03;100848.31;5155580;27;20513;-71
2022/08/17 07:11:11;;;;;;;32.67;25.77;;;;;;;19.81;88.07;100841.25;5155920;27;20084;-73
2022/08/17 07:14:14;;;;;;;31.45;25.38;;;;;;;19.80;88.39;100844.88;5155274;27;20093;-72
2022/08/17 07:16:50;;;;;;;33.80;30.10;;;;;;;19.83;88.47;100854.53;5155012;27;20122;-73
2022/08/17 07:19:21;;;;;;;;;;;;;;;19.82;88.85;100856.34;5155980;27;20573;-72
2022/08/17 07:22:24;;;;;;;31.92;25.30;;;;;;;19.90;88.92;100863.88;5155817;27;19923;-72
2022/08/17 07:24:58;;;;;;;35.08;29.67;;;;;;;19.94;88.66;100851.97;5155574;27;20044;-72
2022/08/17 07:27:32;;;;;;;;;;;;;;;19.96;88.58;100849.22;5156010;27;20092;-73
2022/08/17 07:30:18;;;;;;;31.42;23.38;;;;;;;20.01;88.89;100855.09;5155609;27;19953;-73
2022/08/17 07:33:12;;;;;;;31.58;27.50;;;;;;;20.08;88.62;100875.13;5156826;27;20530;-72
2022/08/17 07:35:43;;;;;;;31.07;26.20;;;;;;;20.21;88.57;100879.59;5150112;27;20057;-72
2022/08/17 07:38:27;;;;;;;32.58;26.33;;;;;;;20.29;88.04;100867.38;5159109;27;20484;-72
2022/08/17 07:41:01;;;;;;;34.00;28.73;;;;;;;20.37;88.35;100874.00;5159123;27;20043;-72
2022/08/17 07:43:39;;;;;;;;;;;;;;;20.49;88.51;100875.81;5159451;27;20058;-72
2022/08/17 07:48:59;;;;;;;31.83;28.45;;;;;;;20.80;88.16;100876.31;5158626;27;20096;-73
2022/08/17 07:51:36;;;;;;;34.85;29.42;;;;;;;20.93;88.52;100877.13;5158504;27;20043;-73
2022/08/17 07:54:22;;;;;;;31.52;26.52;;;;;;;21.05;87.75;100872.66;5158473;27;20047;-73
2022/08/17 07:57:12;;;;;;;36.33;27.35;;;;;;;21.19;87.12;100877.00;5158451;27;20491;-72
2022/08/17 08:00:02;;;;;;;28.75;25.45;;;;;;;21.29;86.65;100879.00;5147452;27;20059;-73
2022/08/17 08:02:44;;;;;;;34.47;30.38;;;;;;;21.38;86.66;100881.84;5158900;27;20035;-72
2022/08/17 08:05:24;;;;;;;32.23;28.13;;;;;;;21.47;86.21;100884.78;5158184;27;20545;-73
2022/08/17 08:08:41;;;;;;;40.28;33.63;;;;;;;21.48;85.22;100894.56;5158050;27;20050;-72
2022/08/17 08:11:14;;;;;;;36.22;31.30;;;;;;;21.50;85.27;100911.38;5158515;27;20035;-73
2022/08/17 08:13:44;;;;;;;37.50;31.98;;;;;;;21.51;85.61;100924.66;5158377;27;20047;-73
2022/08/17 08:16:28;;;;;;;32.80;29.02;;;;;;;21.51;86.04;100927.34;5157796;27;20517;-73
2022/08/17 08:19:00;;;;;;;35.05;28.60;;;;;;;21.54;85.52;100923.56;5158600;27;20501;-73
2022/08/17 08:21:58;;;;;;;34.88;27.40;;;;;;;21.53;84.37;100901.28;5158463;27;20125;-73
2022/08/17 08:25:10;;;;;;;32.10;28.70;;;;;;;21.49;83.86;100888.22;5157779;27;20035;-73
2022/08/17 08:28:15;;;;;;;36.42;31.15;;;;;;;21.49;83.56;100886.38;5111773;27;20156;-73
2022/08/17 08:30:51;;;;;;;36.72;32.10;;;;;;;21.50;84.11;100885.41;5158021;27;20186;-73
2022/08/17 08:33:39;;;;;;;43.92;34.63;;;;;;;21.56;84.62;100892.13;5158000;27;20559;-73
2022/08/17 08:36:38;;;;;;;36.97;33.00;;;;;;;21.64;84.34;100891.59;5157666;27;20045;-73
2022/08/17 08:39:52;;;;;;;40.92;32.60;;;;;;;21.76;84.48;100890.66;5157859;27;20126;-73
2022/08/17 08:42:50;;;;;;;39.13;33.00;;;;;;;21.84;84.47;100873.94;5157493;27;20057;-73
2022/08/17 08:45:31;;;;;;;36.83;30.45;;;;;;;22.02;82.55;100868.97;5157225;27;20522;-74
2022/08/17 08:48:34;;;;;;;34.35;29.27;;;;;;;22.09;81.73;100862.16;5157652;27;20055;-74
2022/08/17 08:51:49;;;;;;;33.00;29.15;;;;;;;22.28;80.36;100856.19;5157712;27;20046;-73
2022/08/17 08:54:46;;;;;;;32.88;28.40;;;;;;;22.49;79.11;100866.22;5157409;27;20043;-73
2022/08/17 08:57:32;;;;;;;35.88;28.83;;;;;;;22.61;80.05;100862.53;5157808;27;20096;-74
2022/08/17 09:00:09;;;;;;;31.65;26.95;;;;;;;22.88;78.27;100852.34;5157552;27;20032;-73
2022/08/17 09:03:05;;;;;;;28.95;25.80;;;;;;;23.07;76.20;100846.28;5157771;27;20043;-73
2022/08/17 09:05:51;;;;;;;31.08;26.10;;;;;;;23.15;76.33;100856.41;5157494;27;20040;-74
2022/08/17 09:09:08;;;;;;;34.67;28.77;;;;;;;23.21;77.79;100853.22;5157635;27;20039;-74
2022/08/17 09:12:03;;;;;;;31.33;26.33;;;;;;;23.39;76.69;100861.56;5157492;27;20044;-74
2022/08/17 09:14:46;;;;;;;;;;;;;;;23.47;75.34;100859.09;5157716;27;20538;-74
2022/08/17 09:18:25;;;;;;;32.83;25.48;;;;;;;23.46;76.32;100875.38;5157229;27;19958;-74
2022/08/17 09:21:40;;;;;;;28.63;25.27;;;;;;;23.50;74.74;100874.13;5020019;28;20133;-75
2022/08/17 09:24:31;;;;;;;30.35;24.92;;;;;;;23.52;73.91;100880.22;5156873;27;20039;-75
2022/08/17 09:27:10;;;;;;;30.33;25.65;;;;;;;23.51;75.27;100883.88;5157385;27;20539;-75
2022/08/17 09:29:46;;;;;;;32.33;26.13;;;;;;;23.54;75.03;100889.03;5156775;27;20047;-74
2022/08/17 09:32:30;;;;;;;30.33;27.08;;;;;;;23.60;75.46;100895.72;5157143;27;20529;-74
2022/08/17 09:35:10;;;;;;;31.90;26.73;;;;;;;23.72;74.65;100898.22;5156966;27;20039;-74
2022/08/17 09:38:15;;;;;;;31.00;27.58;;;;;;;23.84;75.94;100896.31;5157316;27;20127;-75
2022/08/17 09:41:05;;;;;;;;;;;;;;;23.98;77.32;100896.97;5157440;27;20073;-74
2022/08/17 09:43:45;;;;;;;30.23;26.42;;;;;;;24.17;74.34;100910.56;5157341;27;20016;-75
2022/08/17 09:46:23;;;;;;;28.85;25.83;;;;;;;24.26;72.31;100905.38;5156819;27;20035;-74
2022/08/17 09:49:14;;;;;;;31.98;26.25;;;;;;;24.40;71.40;100904.16;5156857;27;20572;-74
2022/08/17 09:51:53;;;;;;;29.13;25.92;;;;;;;24.56;71.09;100904.50;5156866;27;20084;-74
2022/08/17 09:54:28;;;;;;;30.40;27.17;;;;;;;24.62;70.11;100905.78;5156099;27;20046;-74
2022/08/17 09:57:40;;;;;;;31.27;28.08;;;;;;;24.69;71.03;100920.44;5156625;27;20158;-74
2022/08/17 10:00:26;;;;;;;29.98;26.13;;;;;;;24.73;73.25;100929.09;5156611;27;20515;-74
2022/08/17 10:03:27;;;;;;;40.35;27.60;;;;;;;24.74;73.52;100952.38;5156164;27;20237;-74
2022/08/17 10:06:36;;;;;;;34.55;26.75;;;;;;;24.63;73.37;100966.78;5156746;27;20118;-75
2022/08/17 10:09:11;;;;;;;33.28;26.67;;;;;;;24.43;72.56;100963.13;5138640;27;20088;-74
2022/08/17 10:15:14;;;;;;;32.50;26.80;;;;;;;23.94;72.26;100973.59;5156265;27;20046;-74
2022/08/17 10:18:09;;;;;;;30.52;27.33;;;;;;;23.69;73.05;100963.06;5155830;27;20054;-74
2022/08/17 10:26:11;;;;;;;36.70;29.23;;;;;;;23.59;74.23;100959.44;5156276;27;20042;-75
2022/08/17 10:26:36;;;;;;;36.22;30.73;;;;;;;23.49;75.29;100966.59;5155917;27;20043;-74
2022/08/17 10:29:38;;;;;;;33.78;29.30;;;;;;;23.49;74.55;100967.41;5155794;27;20046;-74
2022/08/17 10:32:34;;;;;;;33.42;28.48;;;;;;;23.48;74.19;100965.72;5155898;27;20038;-74
2022/08/17 10:35:27;;;;;;;31.20;27.10;;;;;;;23.49;73.44;100978.19;5155815;27;20100;-74
2022/08/17 10:38:07;;;;;;;33.78;26.63;;;;;;;23.46;73.16;100972.22;5156002;27;20078;-75
2022/08/17 10:40:44;;;;;;;28.85;25.63;;;;;;;23.45;71.77;100971.38;5155539;27;20088;-74
2022/08/17 10:43:45;;;;;;;26.90;24.08;;;;;;;23.45;71.94;100971.38;5156211;27;20495;-74
2022/08/17 10:46:56;;;;;;;29.10;25.27;;;;;;;23.45;71.30;100962.44;5156269;27;20041;-74
2022/08/17 10:49:28;;;;;;;29.45;23.77;;;;;;;23.40;70.19;100969.03;5155624;27;20039;-74
2022/08/17 10:52:00;;;;;;;27.38;22.80;;;;;;;23.29;69.71;100971.78;5156004;27;20043;-75
2022/08/17 10:54:37;;;;;;;29.70;25.42;;;;;;;23.14;72.17;100965.78;5155752;27;20039;-74
2022/08/17 10:57:30;;;;;;;26.80;23.10;;;;;;;23.09;72.24;100966.16;5156174;27;20938;-74
2022/08/17 10:59:59;;;;;;;30.25;22.60;;;;;;;23.01;71.20;100955.16;5156004;27;20041;-74
2022/08/17 11:02:53;;;;;;;32.70;23.55;;;;;;;22.89;71.78;100954.34;5155191;27;20043;-74
2022/08/17 11:05:52;;;;;;;31.50;25.35;;;;;;;22.71;73.14;100959.34;5155688;27;20052;-74
2022/08/17 11:09:12;;;;;;;31.17;26.70;;;;;;;22.58;73.82;100969.38;5158824;27;20089;-74
2022/08/17 11:11:59;;;;;;;38.97;28.65;;;;;;;22.40;75.42;100969.84;5159350;27;20039;-74
2022/08/17 11:14:54;;;;;;;34.38;30.65;;;;;;;22.31;75.90;100973.22;5158742;27;20057;-74
2022/08/17 11:17:40;;;;;;;34.17;29.55;;;;;;;22.26;76.36;100970.06;5158802;27;20047;-74
2022/08/17 11:20:40;;;;;;;36.95;32.97;;;;;;;22.30;77.85;100964.31;5159095;27;20043;-74
2022/08/17 11:23:49;;;;;;;36.20;29.63;;;;;;;22.43;77.18;100964.25;5159090;27;20039;-74
2022/08/17 11:26:26;;;;;;;36.50;31.65;;;;;;;22.54;76.90;100967.91;5159155;27;20050;-75
2022/08/17 11:29:08;;;;;;;35.88;30.65;;;;;;;22.62;77.73;100960.97;5158878;27;20043;-74
2022/08/17 11:31:45;;;;;;;38.50;31.70;;;;;;;22.69;77.30;100949.72;5158881;27;20236;-74
2022/08/17 11:34:20;;;;;;;40.38;30.40;;;;;;;22.73;77.07;100953.88;5159083;27;20047;-74
2022/08/17 11:37:06;;;;;;;36.20;30.92;;;;;;;22.68;76.50;100956.94;5140539;27;20528;-74
2022/08/17 11:40:13;;;;;;;41.92;35.08;;;;;;;22.60;77.23;100970.09;5158719;27;20043;-75
2022/08/17 11:42:58;;;;;;;38.95;32.55;;;;;;;22.51;78.17;100981.56;5158740;27;20497;-75
2022/08/17 11:45:49;;;;;;;41.78;36.47;;;;;;;22.44;78.82;100976.69;5158518;27;20076;-75
2022/08/17 11:51:59;;;;;;;42.10;34.17;;;;;;;22.39;79.35;100986.06;5158942;27;20039;-74
2022/08/17 11:54:30;;;;;;;42.42;35.05;;;;;;;22.27;79.84;100985.19;5158668;27;20148;-74
2022/08/17 11:57:25;;;;;;;44.60;37.90;;;;;;;22.21;80.62;100985.66;5158151;27;20074;-75
2022/08/17 12:00:45;;;;;;;43.03;37.15;;;;;;;22.12;81.66;100982.72;5158285;27;20573;-75
2022/08/17 12:03:42;;;;;;;42.67;35.10;;;;;;;22.00;81.83;100984.50;5158474;27;20500;-75
2022/08/17 12:06:33;;;;;;;43.47;37.97;;;;;;;21.96;82.81;101004.50;5158187;27;20035;-74
2022/08/17 12:09:11;;;;;;;42.03;35.92;;;;;;;21.91;82.83;101008.50;5158405;27;20039;-74
2022/08/17 12:11:54;;;;;;;42.92;38.22;;;;;;;21.86;83.49;101011.53;5158143;27;20052;-73
2022/08/17 12:14:50;;;;;;;45.40;40.50;;;;;;;21.82;84.18;101016.28;5158622;27;20632;-73
2022/08/17 12:17:38;;;;;;;41.35;36.38;;;;;;;21.82;83.30;101023.50;5157298;27;20413;-73
2022/08/17 12:20:14;;;;;;;44.25;36.38;;;;;;;21.75;83.18;101023.09;5158021;27;20523;-73
2022/08/17 12:22:59;;;;;;;43.38;36.90;;;;;;;21.68;83.54;101017.31;5158200;27;20043;-72
2022/08/17 12:25:41;;;;;;;42.35;34.97;;;;;;;21.62;83.63;101012.38;5157923;27;20529;-73
2022/08/17 12:28:26;;;;;;;40.95;35.90;;;;;;;21.58;83.35;101018.94;5158257;27;20039;-73
2022/08/17 12:31:02;;;;;;;43.42;35.55;;;;;;;21.53;83.57;101013.03;5157635;27;20514;-73
2022/08/17 12:33:30;;;;;;;43.30;38.17;;;;;;;21.52;84.37;101009.53;5158117;27;20035;-73
2022/08/17 12:36:07;;;;;;;43.60;37.80;;;;;;;21.54;84.23;101012.97;5157956;27;20553;-73
2022/08/17 12:38:37;;;;;;;44.67;35.15;;;;;;;21.56;84.10;101004.78;5158291;27;20116;-73
2022/08/17 12:41:26;;;;;;;47.22;39.38;;;;;;;21.52;84.55;101006.84;5157869;27;20493;-73